• Join FlightAware (Why Join?)
  • Login
  • US Flag 
09:18AM EDT


 

Airport Tracker/Info


-or-


 

Live Flight TrackerFlight Track Log ✈ UAL1052 ✈ 01-Nov-2013 ✈ PHKO / KOA - KSFO

Flight Track Log - Related Links

Times and Time Zones

All times are in EDT time to prevent confusion due to time zone crossing. See the UAL1052 flight status page for this flight to view local times or setup timezone preferences in your user account.

Time Position Orientation Groundspeed Altitude Reporting Facility
EDT Latitude Longitude Course Direction KTS MPH feet Rate Location/Type
06:38PM 19.7000 -156.0667 23° Northeast 230 265 1,600  Level Honolulu Center
06:39PM 19.7333 -156.1167 305° West 250 288 4,000 2,400 Climbing Honolulu Center
06:40PM 19.9806 -155.7242 20° North  Level Estimated
06:40PM 19.7833 -156.1833 309° West 280 322 6,500  Level Honolulu Center
06:41PM 20.1096 -155.7222 North  Level FlightAware Approximate
06:41PM 19.8333 -156.2500 309° West 290 334 9,100  Level Honolulu Center
06:42PM 20.1898 -155.6145 22° Northeast  Level Estimated
06:42PM 19.9000 -156.3167 317° Northwest 310 357 11,400  Level Honolulu Center
06:43PM 20.2700 -155.5067 23° Northeast  Level Estimated
06:43PM 19.9667 -156.3833 317° Northwest 350 403 12,700  Level Honolulu Center
06:44PM 20.0667 -156.3833 360° North 380 437 14,000 600 Climbing Honolulu Center
06:45PM 20.1667 -156.3167 32° Northeast 380 437 14,000 180 Level Honolulu Center
06:46PM 20.2500 -156.2667 29° Northeast 380 437 14,400 1,260 Climbing Honolulu Center
06:47PM 20.3500 -156.2000 32° Northeast 390 449 16,600 1,800 Climbing Honolulu Center
06:48PM 20.4500 -156.1500 25° Northeast 410 472 18,100 1,680 Climbing Honolulu Center
06:49PM 20.5500 -156.0833 32° Northeast 420 483 20,100 1,680 Climbing Honolulu Center
06:50PM 20.6500 -156.0333 25° Northeast 430 495 21,600 1,560 Climbing Honolulu Center
06:51PM 20.7667 -155.9667 28° Northeast 440 506 23,300 1,680 Climbing Honolulu Center
06:52PM 20.8833 -155.9000 28° Northeast 450 518 25,000 1,440 Climbing Honolulu Center
06:53PM 20.9833 -155.8333 32° Northeast 470 541 26,300 1,260 Climbing Honolulu Center
06:54PM 21.1000 -155.7667 28° Northeast 470 541 27,600 1,200 Climbing Honolulu Center
06:55PM 21.2333 -155.7000 25° Northeast 480 552 28,800 1,200 Climbing Honolulu Center
06:56PM 21.3500 -155.6333 28° Northeast 490 564 30,100 1,320 Climbing Honolulu Center
06:57PM 21.4500 -155.5667 32° Northeast 490 564 31,500 1,500 Climbing Honolulu Center
06:58PM 21.5667 -155.5000 28° Northeast 490 564 33,100 1,320 Climbing Honolulu Center
06:59PM 21.6833 -155.4167 34° Northeast 490 564 34,200 900 Climbing Honolulu Center
07:00PM 21.8167 -155.3500 25° Northeast 490 564 35,000 360 Climbing Honolulu Center
07:01PM 21.9333 -155.2833 28° Northeast 480 552 35,000  Level Honolulu Center
07:02PM 22.0500 -155.2167 28° Northeast 490 564 35,000  Level Honolulu Center
07:03PM 22.1667 -155.1333 33° Northeast 490 564 35,000  Level Honolulu Center
07:04PM 22.2833 -155.0667 28° Northeast 480 552 35,000  Level Honolulu Center
07:05PM 22.4000 -155.0000 28° Northeast 490 564 35,000  Level Honolulu Center
07:06PM 22.5333 -154.9333 25° Northeast 490 564 35,000  Level Honolulu Center
07:07PM 22.6667 -154.8500 30° Northeast 490 564 35,000  Level Honolulu Center
07:08PM 22.7833 -154.7667 33° Northeast 480 552 35,000  Level Honolulu Center
07:09PM 22.9000 -154.7000 28° Northeast 480 552 35,000  Level Honolulu Center
07:11PM 23.0502 -154.5662 57° Northeast  Level FlightAware Approximate
07:18PM 23.5301 -153.7580 57° Northeast  Level FlightAware Approximate
07:19PM 23.5983 -153.6421 57° Northeast  Level FlightAware Approximate
07:20PM 23.6664 -153.5260 57° Northeast  Level FlightAware Approximate
07:21PM 23.7345 -153.4099 57° Northeast  Level FlightAware Approximate
07:22PM 23.8053 -153.2966 57° Northeast  Level FlightAware Approximate
07:22PM 23.7833 -153.3667 57° Northeast 500 575 35,000  Level Oakland Oceanic (ODAPS)
07:23PM 23.8743 -153.1810 57° Northeast  Level FlightAware Approximate
07:24PM 23.9432 -153.0653 57° Northeast  Level FlightAware Approximate
07:25PM 24.0123 -152.9494 57° Northeast  Level FlightAware Approximate
07:26PM 24.0814 -152.8335 57° Northeast  Level FlightAware Approximate
07:27PM 24.1504 -152.7174 57° Northeast  Level FlightAware Approximate
07:28PM 24.3883 -152.3445 57° Northeast 500 575 35,000  Level FlightAware Transoceanic
07:29PM 24.4634 -152.2160 57° Northeast 500 575 35,000  Level FlightAware Transoceanic
07:30PM 24.5384 -152.0874 57° Northeast 500 575 35,000  Level FlightAware Transoceanic
07:31PM 24.6134 -151.9586 57° Northeast 500 575 35,000  Level FlightAware Transoceanic
07:32PM 24.6882 -151.8297 57° Northeast 500 575 35,000  Level FlightAware Transoceanic
07:33PM 24.7629 -151.7006 58° Northeast 500 575 35,000  Level FlightAware Transoceanic
07:34PM 24.8375 -151.5714 58° Northeast 500 575 35,000  Level FlightAware Transoceanic
07:35PM 24.9119 -151.4420 58° Northeast 500 575 35,000  Level FlightAware Transoceanic
07:36PM 24.9863 -151.3125 58° Northeast 500 575 35,000  Level FlightAware Transoceanic
07:37PM 25.0606 -151.1828 58° Northeast 500 575 35,000  Level FlightAware Transoceanic
07:38PM 25.1347 -151.0529 58° Northeast 500 575 35,000  Level FlightAware Transoceanic
07:39PM 25.2087 -150.9229 58° Northeast 500 575 35,000  Level FlightAware Transoceanic
07:40PM 25.2826 -150.7928 58° Northeast 500 575 35,000  Level FlightAware Transoceanic
07:41PM 25.3564 -150.6624 58° Northeast 500 575 35,000  Level FlightAware Transoceanic
07:42PM 25.4301 -150.5319 58° Northeast 500 575 35,000  Level FlightAware Transoceanic
07:43PM 25.5037 -150.4013 58° Northeast 500 575 35,000  Level FlightAware Transoceanic
07:44PM 25.5771 -150.2705 58° Northeast 500 575 35,000  Level FlightAware Transoceanic
07:45PM 25.6505 -150.1395 58° Northeast 500 575 35,000  Level FlightAware Transoceanic
07:46PM 25.7237 -150.0084 58° Northeast 500 575 35,000  Level FlightAware Transoceanic
07:47PM 25.7968 -149.8771 58° Northeast 500 575 35,000  Level FlightAware Transoceanic
07:48PM 25.8698 -149.7456 58° Northeast 500 575 35,000  Level FlightAware Transoceanic
07:49PM 25.9426 -149.6140 58° Northeast 500 575 35,000  Level FlightAware Transoceanic
07:50PM 26.0154 -149.4822 58° Northeast 500 575 35,000  Level FlightAware Transoceanic
07:51PM 26.0880 -149.3503 59° Northeast 500 575 35,000  Level FlightAware Transoceanic
07:52PM 26.1605 -149.2182 59° Northeast 500 575 35,000  Level FlightAware Transoceanic
07:53PM 26.2329 -149.0859 59° Northeast 500 575 35,000  Level FlightAware Transoceanic
07:54PM 26.3052 -148.9535 59° Northeast 500 575 35,000  Level FlightAware Transoceanic
07:55PM 26.3773 -148.8209 59° Northeast 500 575 35,000  Level FlightAware Transoceanic
07:56PM 26.4493 -148.6881 59° Northeast 500 575 35,000  Level FlightAware Transoceanic
07:57PM 26.5212 -148.5552 59° Northeast 500 575 35,000  Level FlightAware Transoceanic
07:58PM 26.5930 -148.4221 59° Northeast 500 575 35,000  Level FlightAware Transoceanic
07:59PM 26.6647 -148.2888 59° Northeast 500 575 35,000  Level FlightAware Transoceanic
08:00PM 26.7362 -148.1554 59° Northeast 500 575 35,000  Level FlightAware Transoceanic
08:01PM 26.8076 -148.0218 59° Northeast 500 575 35,000  Level FlightAware Transoceanic
08:02PM 26.8789 -147.8880 59° Northeast 500 575 35,000  Level FlightAware Transoceanic
08:03PM 26.9500 -147.7541 59° Northeast 500 575 35,000  Level FlightAware Transoceanic
08:04PM 27.0210 -147.6200 59° Northeast 500 575 35,000  Level FlightAware Transoceanic
08:05PM 27.0919 -147.4857 59° Northeast 500 575 35,000  Level FlightAware Transoceanic
08:06PM 27.1627 -147.3513 59° Northeast 500 575 35,000  Level FlightAware Transoceanic
08:07PM 27.2333 -147.2167 59° Northeast 500 575 35,000  Level FlightAware Transoceanic
08:08PM 27.3024 -147.0849 60° Northeast 500 575 35,000  Level FlightAware Transoceanic
08:09PM 27.3713 -146.9529 60° Northeast 500 575 35,000  Level FlightAware Transoceanic
08:10PM 27.4402 -146.8208 60° Northeast 500 575 35,000  Level FlightAware Transoceanic
08:10PM 27.2333 -147.2167 59° Northeast 500 575 35,000  Level Oakland Oceanic (ODAPS)
08:11PM 27.5089 -146.6886 60° Northeast 500 575 35,000  Level FlightAware Transoceanic
08:12PM 27.5774 -146.5561 60° Northeast 500 575 35,000  Level FlightAware Transoceanic
08:13PM 27.6459 -146.4235 60° Northeast 500 575 35,000  Level FlightAware Transoceanic
08:14PM 27.7142 -146.2908 60° Northeast 500 575 35,000  Level FlightAware Transoceanic
08:15PM 27.7824 -146.1578 60° Northeast 500 575 35,000  Level FlightAware Transoceanic
08:16PM 27.8635 -145.9992 60° Northeast 500 575 35,000  Level FlightAware Transoceanic
08:17PM 27.9328 -145.8631 60° Northeast 500 575 35,000  Level FlightAware Transoceanic
08:18PM 28.0021 -145.7268 60° Northeast 500 575 35,000  Level FlightAware Transoceanic
08:19PM 28.0712 -145.5903 60° Northeast 500 575 35,000  Level FlightAware Transoceanic
08:20PM 28.1401 -145.4536 60° Northeast 500 575 35,000  Level FlightAware Transoceanic
08:21PM 28.2089 -145.3168 60° Northeast 500 575 35,000  Level FlightAware Transoceanic
08:22PM 28.2776 -145.1797 60° Northeast 500 575 35,000  Level FlightAware Transoceanic
08:23PM 28.3462 -145.0426 60° Northeast 500 575 35,000  Level FlightAware Transoceanic
08:24PM 28.4146 -144.9052 61° Northeast 500 575 35,000  Level FlightAware Transoceanic
08:25PM 28.4828 -144.7676 61° Northeast 500 575 35,000  Level FlightAware Transoceanic
08:26PM 28.5510 -144.6299 61° Northeast 500 575 35,000  Level FlightAware Transoceanic
08:27PM 28.6190 -144.4920 61° Northeast 500 575 35,000  Level FlightAware Transoceanic
08:28PM 28.6868 -144.3539 61° Northeast 500 575 35,000  Level FlightAware Transoceanic
08:29PM 28.7545 -144.2157 61° Northeast 500 575 35,000  Level FlightAware Transoceanic
08:30PM 28.8221 -144.0772 61° Northeast 500 575 35,000  Level FlightAware Transoceanic
08:31PM 28.8895 -143.9386 61° Northeast 500 575 35,000  Level FlightAware Transoceanic
08:32PM 28.9568 -143.7998 61° Northeast 500 575 35,000  Level FlightAware Transoceanic
08:33PM 29.0240 -143.6608 61° Northeast 500 575 35,000  Level FlightAware Transoceanic
08:34PM 29.0910 -143.5217 61° Northeast 500 575 35,000  Level FlightAware Transoceanic
08:35PM 29.1578 -143.3823 61° Northeast 500 575 35,000  Level FlightAware Transoceanic
08:36PM 29.2245 -143.2428 61° Northeast 500 575 35,000  Level FlightAware Transoceanic
08:37PM 29.2911 -143.1031 61° Northeast 500 575 35,000  Level FlightAware Transoceanic
08:38PM 29.3575 -142.9632 61° Northeast 500 575 35,000  Level FlightAware Transoceanic
08:39PM 29.4238 -142.8231 62° Northeast 500 575 35,000  Level FlightAware Transoceanic
08:40PM 29.4899 -142.6829 62° Northeast 500 575 35,000  Level FlightAware Transoceanic
08:41PM 29.5559 -142.5424 62° Northeast 500 575 35,000  Level FlightAware Transoceanic
08:42PM 29.6217 -142.4018 62° Northeast 500 575 35,000  Level FlightAware Transoceanic
08:43PM 29.6874 -142.2610 62° Northeast 500 575 35,000  Level FlightAware Transoceanic
08:44PM 29.7530 -142.1200 62° Northeast 500 575 35,000  Level FlightAware Transoceanic
08:45PM 29.8183 -141.9789 62° Northeast 500 575 35,000  Level FlightAware Transoceanic
08:46PM 29.8836 -141.8375 62° Northeast 500 575 35,000  Level FlightAware Transoceanic
08:47PM 29.9487 -141.6960 62° Northeast 500 575 35,000  Level FlightAware Transoceanic
08:48PM 30.0136 -141.5542 62° Northeast 500 575 35,000  Level FlightAware Transoceanic
08:49PM 30.0784 -141.4123 62° Northeast 500 575 35,000  Level FlightAware Transoceanic
08:50PM 30.1430 -141.2702 62° Northeast 500 575 35,000  Level FlightAware Transoceanic
08:51PM 30.2075 -141.1280 62° Northeast 500 575 35,000  Level FlightAware Transoceanic
08:52PM 30.2718 -140.9855 62° Northeast 500 575 35,000  Level FlightAware Transoceanic
08:53PM 30.3360 -140.8428 63° Northeast 500 575 35,000  Level FlightAware Transoceanic
08:54PM 30.4000 -140.7000 63° Northeast 500 575 35,000  Level FlightAware Transoceanic
08:55PM 30.4614 -140.5627 63° Northeast 500 575 35,000  Level FlightAware Transoceanic
08:56PM 30.5227 -140.4251 63° Northeast 500 575 35,000  Level FlightAware Transoceanic
08:57PM 30.5838 -140.2874 63° Northeast 500 575 35,000  Level FlightAware Transoceanic
08:58PM 30.6448 -140.1496 63° Northeast 500 575 35,000  Level FlightAware Transoceanic
08:58PM 30.4000 -140.7000 63° Northeast 480 552 35,000  Level Oakland Oceanic (ODAPS)
08:59PM 30.7056 -140.0115 63° Northeast 500 575 35,000  Level FlightAware Transoceanic
09:00PM 30.7663 -139.8733 63° Northeast 500 575 35,000  Level FlightAware Transoceanic
09:01PM 30.8268 -139.7349 63° Northeast 500 575 35,000  Level FlightAware Transoceanic
09:02PM 30.8872 -139.5963 63° Northeast 500 575 35,000  Level FlightAware Transoceanic
09:03PM 30.9475 -139.4576 63° Northeast 500 575 35,000  Level FlightAware Transoceanic
09:04PM 30.9475 -139.4576 63° Northeast 480 552 35,000  Level FlightAware Transoceanic
09:05PM 31.0075 -139.3186 63° Northeast 480 552 35,000  Level FlightAware Transoceanic
09:06PM 31.0675 -139.1796 63° Northeast 480 552 35,000  Level FlightAware Transoceanic
09:07PM 31.1273 -139.0403 63° Northeast 480 552 35,000  Level FlightAware Transoceanic
09:08PM 31.1869 -138.9008 63° Northeast 480 552 35,000  Level FlightAware Transoceanic
09:09PM 31.2464 -138.7612 64° Northeast 480 552 35,000  Level FlightAware Transoceanic
09:10PM 31.3058 -138.6214 64° Northeast 480 552 35,000  Level FlightAware Transoceanic
09:11PM 31.3650 -138.4815 64° Northeast 480 552 35,000  Level FlightAware Transoceanic
09:12PM 31.4240 -138.3413 64° Northeast 480 552 35,000  Level FlightAware Transoceanic
09:13PM 31.4829 -138.2010 64° Northeast 480 552 35,000  Level FlightAware Transoceanic
09:14PM 31.5416 -138.0605 64° Northeast 480 552 35,000  Level FlightAware Transoceanic
09:15PM 31.6002 -137.9198 64° Northeast 480 552 35,000  Level FlightAware Transoceanic
09:16PM 31.6586 -137.7789 64° Northeast 480 552 35,000  Level FlightAware Transoceanic
09:17PM 31.7169 -137.6379 64° Northeast 480 552 35,000  Level FlightAware Transoceanic
09:18PM 31.7750 -137.4967 64° Northeast 480 552 35,000  Level FlightAware Transoceanic
09:19PM 31.8330 -137.3553 64° Northeast 480 552 35,000  Level FlightAware Transoceanic
09:20PM 31.8908 -137.2138 64° Northeast 480 552 35,000  Level FlightAware Transoceanic
09:21PM 31.9484 -137.0720 64° Northeast 480 552 35,000  Level FlightAware Transoceanic
09:22PM 32.0059 -136.9301 65° Northeast 480 552 35,000  Level FlightAware Transoceanic
09:23PM 32.0632 -136.7880 65° Northeast 480 552 35,000  Level FlightAware Transoceanic
09:24PM 32.1204 -136.6457 65° Northeast 480 552 35,000  Level FlightAware Transoceanic
09:25PM 32.1774 -136.5033 65° Northeast 480 552 35,000  Level FlightAware Transoceanic
09:26PM 32.2343 -136.3606 65° Northeast 480 552 35,000  Level FlightAware Transoceanic
09:27PM 32.2910 -136.2178 65° Northeast 480 552 35,000  Level FlightAware Transoceanic
09:28PM 32.3475 -136.0748 65° Northeast 480 552 35,000  Level FlightAware Transoceanic
09:29PM 32.4039 -135.9317 65° Northeast 480 552 35,000  Level FlightAware Transoceanic
09:30PM 32.4601 -135.7883 65° Northeast 480 552 35,000  Level FlightAware Transoceanic
09:31PM 32.5161 -135.6448 65° Northeast 480 552 35,000  Level FlightAware Transoceanic
09:32PM 32.5720 -135.5011 65° Northeast 480 552 35,000  Level FlightAware Transoceanic
09:33PM 32.6277 -135.3572 65° Northeast 480 552 35,000  Level FlightAware Transoceanic
09:34PM 32.6833 -135.2132 65° Northeast 480 552 35,000  Level FlightAware Transoceanic
09:35PM 32.7386 -135.0689 66° East 480 552 35,000  Level FlightAware Transoceanic
09:36PM 32.7939 -134.9245 66° East 480 552 35,000  Level FlightAware Transoceanic
09:37PM 32.8489 -134.7799 66° East 480 552 35,000  Level FlightAware Transoceanic
09:38PM 32.9038 -134.6351 66° East 480 552 35,000  Level FlightAware Transoceanic
09:39PM 32.9585 -134.4902 66° East 480 552 35,000  Level FlightAware Transoceanic
09:40PM 33.0131 -134.3450 66° East 480 552 35,000  Level FlightAware Transoceanic
09:41PM 33.0675 -134.1997 66° East 480 552 35,000  Level FlightAware Transoceanic
09:42PM 33.1217 -134.0542 66° East 480 552 35,000  Level FlightAware Transoceanic
09:43PM 33.1757 -133.9086 66° East 480 552 35,000  Level FlightAware Transoceanic
09:44PM 33.2296 -133.7627 66° East 480 552 35,000  Level FlightAware Transoceanic
09:45PM 33.2833 -133.6167 66° East 480 552 35,000  Level FlightAware Transoceanic
09:46PM 33.3347 -133.4763 66° East 480 552 35,000  Level FlightAware Transoceanic
09:47PM 33.3859 -133.3358 66° East 480 552 35,000 660 Level FlightAware Transoceanic
09:47PM 33.2833 -133.6167 66° East 471 542 36,000  Climbing Oakland Oceanic (ODAPS)
09:48PM 33.4369 -133.1951 67° East 480 552 35,000 -720 Descending FlightAware Transoceanic
09:49PM 33.4878 -133.0542 67° East 480 552 35,000  Level FlightAware Transoceanic
09:50PM 33.5385 -132.9132 67° East 480 552 35,000  Level FlightAware Transoceanic
09:51PM 33.5891 -132.7720 67° East 480 552 35,000  Level FlightAware Transoceanic
09:52PM 33.6395 -132.6307 67° East 480 552 35,000 480 Level FlightAware Transoceanic
09:53PM 33.6464 -132.6113 67° East 471 542 36,000 480 Climbing FlightAware Transoceanic
09:54PM 33.6976 -132.4669 67° East 471 542 36,000  Level FlightAware Transoceanic
09:55PM 33.7486 -132.3225 67° East 471 542 36,000  Level FlightAware Transoceanic
09:56PM 33.7995 -132.1778 67° East 471 542 36,000  Level FlightAware Transoceanic
09:57PM 33.8502 -132.0330 67° East 471 542 36,000  Level FlightAware Transoceanic
09:58PM 33.9007 -131.8880 67° East 471 542 36,000  Level FlightAware Transoceanic
09:59PM 33.9511 -131.7428 67° East 471 542 36,000  Level FlightAware Transoceanic
10:00PM 34.0012 -131.5974 67° East 471 542 36,000  Level FlightAware Transoceanic
10:01PM 34.0513 -131.4519 68° East 471 542 36,000  Level FlightAware Transoceanic
10:02PM 34.1011 -131.3062 68° East 471 542 36,000  Level FlightAware Transoceanic
10:03PM 34.1508 -131.1604 68° East 471 542 36,000  Level FlightAware Transoceanic
10:04PM 34.2003 -131.0144 68° East 471 542 36,000  Level FlightAware Transoceanic
10:05PM 34.2496 -130.8681 68° East 471 542 36,000  Level FlightAware Transoceanic
10:06PM 34.2987 -130.7218 68° East 471 542 36,000  Level FlightAware Transoceanic
10:07PM 34.3477 -130.5752 68° East 471 542 36,000  Level FlightAware Transoceanic
10:08PM 34.3965 -130.4285 68° East 471 542 36,000  Level FlightAware Transoceanic
10:09PM 34.4451 -130.2816 68° East 471 542 36,000  Level FlightAware Transoceanic
10:10PM 34.4936 -130.1346 68° East 471 542 36,000  Level FlightAware Transoceanic
10:11PM 34.5419 -129.9873 68° East 471 542 36,000  Level FlightAware Transoceanic
10:12PM 34.5900 -129.8399 68° East 471 542 36,000  Level FlightAware Transoceanic
10:13PM 34.6379 -129.6924 69° East 471 542 36,000  Level FlightAware Transoceanic
10:14PM 34.6856 -129.5446 69° East 471 542 36,000  Level FlightAware Transoceanic
10:15PM 34.7332 -129.3967 69° East 471 542 36,000  Level FlightAware Transoceanic
10:16PM 34.7806 -129.2486 69° East 471 542 36,000  Level FlightAware Transoceanic
10:17PM 34.8278 -129.1004 69° East 471 542 36,000  Level FlightAware Transoceanic
10:18PM 34.8748 -128.9520 69° East 471 542 36,000  Level FlightAware Transoceanic
10:19PM 34.9216 -128.8034 69° East 471 542 36,000  Level FlightAware Transoceanic
10:20PM 34.9683 -128.6546 69° East 471 542 36,000  Level FlightAware Transoceanic
10:21PM 35.0148 -128.5057 69° East 471 542 36,000  Level FlightAware Transoceanic
10:22PM 35.0611 -128.3566 69° East 471 542 36,000  Level FlightAware Transoceanic
10:23PM 35.1072 -128.2073 69° East 471 542 36,000  Level FlightAware Transoceanic
10:24PM 35.1531 -128.0579 69° East 471 542 36,000  Level FlightAware Transoceanic
10:25PM 35.1989 -127.9083 70° East 471 542 36,000  Level FlightAware Transoceanic
10:26PM 35.2444 -127.7585 70° East 471 542 36,000  Level FlightAware Transoceanic
10:27PM 35.2898 -127.6086 70° East 471 542 36,000  Level FlightAware Transoceanic
10:28PM 35.3350 -127.4585 70° East 471 542 36,000  Level FlightAware Transoceanic
10:29PM 35.3800 -127.3082 70° East 471 542 36,000  Level FlightAware Transoceanic
10:30PM 35.4248 -127.1578 70° East 471 542 36,000  Level FlightAware Transoceanic
10:31PM 35.4695 -127.0071 70° East 471 542 36,000  Level FlightAware Transoceanic
10:32PM 35.5139 -126.8564 70° East 471 542 36,000  Level FlightAware Transoceanic
10:33PM 35.5582 -126.7054 70° East 471 542 36,000  Level FlightAware Transoceanic
10:34PM 35.6022 -126.5543 70° East 471 542 36,000  Level FlightAware Transoceanic
10:35PM 35.6461 -126.4031 70° East 471 542 36,000  Level FlightAware Transoceanic
10:35PM 35.6061 -126.5417 67° East 461 531 36,000  Level Oakland Center
10:36PM 35.6898 -126.2516 70° East 471 542 36,000  Level FlightAware Transoceanic
10:36PM 35.6475 -126.3944 71° East 459 528 36,000  Level Oakland Center
10:37PM 35.7333 -126.1000 67° East 471 542 36,000  Level FlightAware Transoceanic
10:37PM 35.6911 -126.2492 70° East 458 527 36,000  Level Oakland Center
10:38PM 35.7841 -125.9526 67° East 471 542 36,000  Level FlightAware Transoceanic
10:38PM 35.7325 -126.1036 71° East 455 524 36,000  Level Oakland Center
10:39PM 35.8346 -125.8050 67° East 471 542 36,000  Level FlightAware Transoceanic
10:39PM 35.7819 -125.9600 67° East 457 526 36,000  Level Oakland Center
10:40PM 35.8850 -125.6572 67° East 471 542 36,000  Level FlightAware Transoceanic
10:40PM 35.8439 -125.8225 61° Northeast 460 529 36,000  Level Oakland Center
10:41PM 35.9136 -125.6931 56° Northeast 459 528 36,000  Level Oakland Center
10:42PM 35.9828 -125.5639 56° Northeast 456 525 36,000  Level Oakland Center
10:43PM 36.0500 -125.4317 58° Northeast 455 524 36,000  Level Oakland Center
10:44PM 36.1108 -125.2967 61° Northeast 451 519 36,000  Level Oakland Center
10:45PM 36.1906 -125.1367 58° Northeast 455 524 36,000  Level Oakland Center
10:46PM 36.2569 -125.0033 58° Northeast 457 526 36,000  Level Oakland Center
10:47PM 36.3208 -124.8694 59° Northeast 452 520 36,000  Level Oakland Center
10:48PM 36.3867 -124.7344 59° Northeast 457 526 36,000 -60 Level Oakland Center
10:49PM 36.4525 -124.5983 59° Northeast 460 529 35,900 -1,140 Descending Oakland Center
10:50PM 36.5156 -124.4633 60° Northeast 455 524 33,800 -2,220 Descending Oakland Center
10:51PM 36.5806 -124.3258 59° Northeast 461 531 31,500 -2,040 Descending Oakland Center
10:52PM 36.6431 -124.1939 59° Northeast 448 516 29,700 -1,860 Descending Oakland Center
10:53PM 36.7047 -124.0647 59° Northeast 437 503 27,800 -1,920 Descending Oakland Center
10:54PM 36.7631 -123.9392 60° Northeast 422 486 25,800 -2,160 Descending Oakland Center
10:55PM 36.8308 -123.7914 60° Northeast 411 473 23,500 -2,100 Descending Oakland Center
10:56PM 36.8864 -123.6719 60° Northeast 400 460 21,600 -1,860 Descending Oakland Center
10:57PM 36.9408 -123.5542 60° Northeast 395 455 19,800 -1,800 Descending Oakland Center
10:58PM 36.9936 -123.4406 60° Northeast 381 438 18,000 -1,740 Descending Oakland Center
10:59PM 37.0483 -123.3317 58° Northeast 373 429 16,300 -1,680 Descending Oakland Center
11:00PM 37.0981 -123.2200 61° Northeast 369 425 14,600 -1,740 Descending Oakland Center
11:01PM 37.1456 -123.1122 61° Northeast 360 414 12,800 -1,740 Descending Oakland Center
11:02PM 37.1939 -123.0081 60° Northeast 352 405 11,100 -1,320 Descending Oakland Center
11:03PM 37.2386 -122.9081 61° Northeast 343 395 10,200 -600 Descending Oakland Center
11:04PM 37.2694 -122.8178 67° East 313 360 10,000 -120 Descending Oakland Center
11:05PM 37.2978 -122.7006 73° East 296 341 10,000 -120 Level Oakland Center
11:06PM 37.3200 -122.6022 74° East 295 339 9,800 -660 Descending Oakland Center
11:07PM 37.3411 -122.5089 74° East 287 330 8,700 -900 Descending Oakland Center
11:08PM 37.3619 -122.4206 73° East 273 314 8,000 -360 Descending Oakland Center
11:09PM 37.3814 -122.3333 74° East 265 305 8,000 -180 Level Oakland Center
11:10PM 37.4006 -122.2483 74° East 258 297 7,700 -840 Descending Oakland Center
11:11PM 37.4311 -122.1803 61° Northeast 239 275 6,300 -1,260 Descending Oakland Center
11:12PM 37.4908 -122.1750 North 230 265 5,200 -1,320 Descending Oakland Center
11:13PM 37.5428 -122.1981 341° North 204 235 3,700 -1,560 Descending Oakland Center
11:14PM 37.5658 -122.2500 299° West 182 209 2,100 -1,380 Descending Oakland Center
11:15PM 37.5892 -122.3056 298° West 163 188 1,000 -960 Descending Oakland Center
11:17PM 37.6086 -122.3503 299° West 152 175 200 -840 Descending Oakland Center